createdAt,value
2022-12-04T00:01:31.749Z,25.28
2022-12-04T00:03:58.136Z,26.63
2022-12-04T00:06:24.696Z,26.57
2022-12-04T00:08:51.150Z,26.30
2022-12-04T00:11:17.745Z,26.20
2022-12-04T00:13:44.457Z,26.60
2022-12-04T00:16:10.848Z,25.41
2022-12-04T00:18:37.255Z,26.24
2022-12-04T00:21:04.240Z,26.00
2022-12-04T00:23:30.630Z,26.54
2022-12-04T00:25:57.010Z,27.34
2022-12-04T00:28:23.350Z,27.28
2022-12-04T00:30:49.729Z,27.89
2022-12-04T00:33:16.121Z,27.58
2022-12-04T00:35:42.671Z,26.42
2022-12-04T00:38:09.009Z,26.95
2022-12-04T00:40:35.523Z,26.83
2022-12-04T00:43:01.915Z,27.13
2022-12-04T00:45:28.412Z,27.01
2022-12-04T00:47:54.890Z,27.43
2022-12-04T00:50:21.275Z,27.76
2022-12-04T00:52:47.646Z,27.65
2022-12-04T00:55:14.011Z,28.90
2022-12-04T00:57:40.392Z,28.79
2022-12-04T01:00:06.743Z,29.93
2022-12-04T01:02:33.195Z,29.25
2022-12-04T01:04:59.630Z,29.25
2022-12-04T01:07:26.148Z,29.99
2022-12-04T01:09:52.928Z,30.12
2022-12-04T01:12:21.130Z,30.08
2022-12-04T01:14:48.717Z,29.46
2022-12-04T01:17:15.177Z,36.90
2022-12-04T01:19:41.520Z,37.28
2022-12-04T01:22:07.996Z,30.37
2022-12-04T01:24:34.381Z,31.33
2022-12-04T01:27:00.770Z,47.10
2022-12-04T01:29:27.158Z,37.18
2022-12-04T01:31:53.661Z,29.58
2022-12-04T01:34:20.145Z,30.44
2022-12-04T01:36:46.534Z,29.76
2022-12-04T01:39:13.008Z,30.86
2022-12-04T01:41:39.379Z,30.26
2022-12-04T01:44:05.735Z,29.39
2022-12-04T01:46:32.075Z,28.81
2022-12-04T01:48:58.456Z,28.54
2022-12-04T01:51:27.173Z,29.35
2022-12-04T01:53:53.746Z,29.11
2022-12-04T01:56:20.167Z,29.15
2022-12-04T01:58:46.603Z,27.93
2022-12-04T02:01:14.309Z,28.48
2022-12-04T02:03:40.752Z,28.60
2022-12-04T02:06:07.225Z,28.25
2022-12-04T02:08:33.615Z,29.59
2022-12-04T02:11:00.005Z,29.54
2022-12-04T02:13:26.522Z,29.34
2022-12-04T02:15:52.982Z,29.50
2022-12-04T02:18:19.540Z,29.19
2022-12-04T02:20:46.022Z,28.31
2022-12-04T02:23:12.390Z,29.49
2022-12-04T02:25:38.977Z,29.04
2022-12-04T02:28:05.355Z,28.88
2022-12-04T02:30:31.784Z,27.93
2022-12-04T02:32:58.199Z,27.98
2022-12-04T02:35:24.550Z,27.68
2022-12-04T02:37:50.924Z,27.77
2022-12-04T02:40:17.286Z,27.53
2022-12-04T02:42:43.709Z,27.79
2022-12-04T02:45:10.147Z,29.17
2022-12-04T02:47:36.605Z,29.03
2022-12-04T02:50:03.105Z,28.42
2022-12-04T02:52:29.496Z,28.23
2022-12-04T02:54:55.896Z,27.73
2022-12-04T02:57:22.526Z,28.04
2022-12-04T02:59:48.902Z,28.39
2022-12-04T03:02:15.319Z,29.06
2022-12-04T03:04:41.852Z,29.43
2022-12-04T03:07:08.266Z,29.69
2022-12-04T03:09:34.640Z,28.90
2022-12-04T03:12:01.030Z,28.86
2022-12-04T03:14:28.846Z,29.36
2022-12-04T03:16:55.267Z,29.57
2022-12-04T03:19:21.915Z,27.78
2022-12-04T03:21:48.516Z,29.02
2022-12-04T03:24:14.977Z,28.92
2022-12-04T03:26:41.396Z,28.58
2022-12-04T03:29:08.033Z,28.57
2022-12-04T03:31:34.579Z,28.68
2022-12-04T03:34:01.943Z,28.58
2022-12-04T03:36:28.325Z,28.73
2022-12-04T03:38:54.712Z,28.35
2022-12-04T03:41:21.099Z,28.20
2022-12-04T03:43:47.518Z,27.64
2022-12-04T03:46:13.929Z,27.59
2022-12-04T03:48:40.286Z,26.80
2022-12-04T03:51:06.668Z,27.39
2022-12-04T03:53:33.167Z,27.72
2022-12-04T03:56:00.028Z,28.12
2022-12-04T03:58:26.418Z,28.10
2022-12-04T04:00:52.769Z,28.54
2022-12-04T04:03:19.152Z,29.45
2022-12-04T04:05:45.866Z,28.48
2022-12-04T04:08:12.299Z,28.47
2022-12-04T04:10:38.686Z,29.67
2022-12-04T04:13:05.141Z,31.58
2022-12-04T04:15:31.529Z,32.17
2022-12-04T04:17:57.977Z,31.50
2022-12-04T04:20:24.361Z,31.48
2022-12-04T04:22:56.018Z,30.62
2022-12-04T04:25:22.719Z,31.95
2022-12-04T04:27:49.090Z,31.64
2022-12-04T04:30:15.431Z,31.45
2022-12-04T04:32:41.880Z,31.08
2022-12-04T04:35:08.265Z,31.11
2022-12-04T04:37:34.623Z,31.65
2022-12-04T04:40:01.001Z,32.23
2022-12-04T04:42:27.327Z,31.76
2022-12-04T04:44:53.819Z,31.14
2022-12-04T04:47:20.210Z,32.11
2022-12-04T04:49:46.996Z,32.48
2022-12-04T04:52:13.473Z,31.67
2022-12-04T04:54:39.815Z,31.44
2022-12-04T04:57:06.183Z,31.92
2022-12-04T04:59:33.043Z,31.90
2022-12-04T05:01:59.516Z,31.40
2022-12-04T05:04:25.915Z,33.08
2022-12-04T05:06:52.489Z,32.34
2022-12-04T05:09:18.882Z,30.99
2022-12-04T05:11:45.400Z,31.51
2022-12-04T05:14:12.226Z,31.00
2022-12-04T05:16:39.007Z,30.91
2022-12-04T05:19:05.569Z,30.01
2022-12-04T05:21:31.924Z,29.91
2022-12-04T05:23:58.302Z,29.46
2022-12-04T05:26:24.651Z,29.42
2022-12-04T05:28:50.994Z,29.73
2022-12-04T05:31:17.385Z,28.97
2022-12-04T05:33:43.796Z,29.38
2022-12-04T05:36:10.358Z,29.18
2022-12-04T05:38:36.712Z,30.04
2022-12-04T05:41:03.063Z,29.91
2022-12-04T05:43:29.396Z,30.35
2022-12-04T05:45:55.801Z,29.92
2022-12-04T05:48:22.439Z,29.67
2022-12-04T05:50:49.067Z,30.48
2022-12-04T05:53:15.762Z,29.85
2022-12-04T05:55:42.096Z,31.25
2022-12-04T05:58:08.537Z,30.75
2022-12-04T06:00:34.922Z,31.47
2022-12-04T06:03:01.369Z,31.62
2022-12-04T06:05:28.154Z,31.38
2022-12-04T06:07:54.596Z,32.16
2022-12-04T06:10:21.192Z,31.73
2022-12-04T06:12:47.570Z,32.53
2022-12-04T06:15:16.040Z,32.73
2022-12-04T06:17:42.496Z,32.04
2022-12-04T06:20:11.671Z,31.23
2022-12-04T06:22:38.394Z,32.13
2022-12-04T06:25:04.802Z,31.50
2022-12-04T06:27:31.310Z,30.80
2022-12-04T06:29:58.022Z,32.27
2022-12-04T06:32:24.735Z,31.69
2022-12-04T06:34:51.167Z,32.73
2022-12-04T06:37:17.656Z,33.44
2022-12-04T06:39:44.032Z,33.09
2022-12-04T06:42:10.433Z,32.26
2022-12-04T06:44:37.106Z,32.77
2022-12-04T06:47:03.919Z,31.80
2022-12-04T06:49:30.966Z,32.34
2022-12-04T06:51:57.376Z,31.67
2022-12-04T06:54:23.759Z,32.50
2022-12-04T06:56:50.204Z,31.17
2022-12-04T06:59:19.175Z,31.25
2022-12-04T07:01:46.204Z,31.09
2022-12-04T07:04:12.582Z,29.89
2022-12-04T07:06:38.928Z,30.06
2022-12-04T07:09:05.318Z,30.27
2022-12-04T07:11:31.948Z,31.02
2022-12-04T07:13:58.795Z,30.72
2022-12-04T07:16:25.277Z,30.59
2022-12-04T07:18:51.683Z,31.98
2022-12-04T07:21:18.077Z,30.76
2022-12-04T07:23:46.487Z,31.11
2022-12-04T07:26:12.878Z,31.44
2022-12-04T07:28:39.641Z,30.65
2022-12-04T07:31:06.978Z,32.26
2022-12-04T07:33:33.379Z,31.66
2022-12-04T07:35:59.776Z,31.73
2022-12-04T07:38:26.119Z,31.95
2022-12-04T07:40:55.398Z,31.36
2022-12-04T07:43:21.773Z,31.30
2022-12-04T07:45:48.310Z,30.57
2022-12-04T07:48:14.796Z,30.30
2022-12-04T07:50:41.183Z,30.05
2022-12-04T07:53:07.539Z,30.24
2022-12-04T07:55:33.920Z,29.62
2022-12-04T07:58:01.311Z,29.56
2022-12-04T08:00:27.842Z,29.25
2022-12-04T08:02:54.421Z,30.09
2022-12-04T08:05:20.756Z,29.47
2022-12-04T08:07:49.214Z,28.76
2022-12-04T08:10:15.579Z,30.43
2022-12-04T08:12:43.008Z,29.75
2022-12-04T08:15:09.369Z,29.70
2022-12-04T08:17:35.756Z,29.41
2022-12-04T08:20:02.184Z,29.21
2022-12-04T08:22:28.563Z,29.75
2022-12-04T08:24:55.031Z,31.73
2022-12-04T08:27:21.468Z,33.42
2022-12-04T08:29:47.866Z,33.35
2022-12-04T08:32:14.216Z,33.22
2022-12-04T08:34:40.598Z,34.76
2022-12-04T08:37:06.962Z,34.13
2022-12-04T08:39:33.375Z,34.52
2022-12-04T08:41:59.754Z,35.46
2022-12-04T08:44:26.158Z,34.41
2022-12-04T08:46:52.619Z,34.67
2022-12-04T08:49:19.049Z,34.45
2022-12-04T08:51:45.822Z,34.03
2022-12-04T08:54:12.220Z,35.30
2022-12-04T08:56:38.729Z,34.50
2022-12-04T08:59:05.474Z,34.50
2022-12-04T09:01:32.012Z,34.11
2022-12-04T09:03:58.519Z,33.34
2022-12-04T09:06:24.885Z,32.17
2022-12-04T09:08:51.224Z,31.86
2022-12-04T09:11:17.731Z,32.39
2022-12-04T09:13:45.115Z,32.30
2022-12-04T09:16:11.639Z,31.41
2022-12-04T09:18:38.177Z,32.87
2022-12-04T09:21:05.066Z,32.82
2022-12-04T09:23:31.410Z,32.23
2022-12-04T09:25:57.754Z,32.71
2022-12-04T09:28:25.108Z,33.68
2022-12-04T09:30:51.714Z,32.81
2022-12-04T09:33:18.100Z,32.49
2022-12-04T09:35:44.488Z,33.13
2022-12-04T09:38:10.930Z,32.32
2022-12-04T09:43:21.924Z,31.93
2022-12-04T09:45:48.577Z,31.88
2022-12-04T09:48:16.998Z,30.88
2022-12-04T09:50:47.612Z,31.14
2022-12-04T10:04:39.473Z,32.68
2022-12-04T10:07:08.342Z,32.82
2022-12-04T10:09:34.803Z,31.79
2022-12-04T10:12:01.406Z,33.48
2022-12-04T10:14:27.842Z,33.63
2022-12-04T10:16:55.528Z,33.31
2022-12-04T10:19:22.017Z,31.55
2022-12-04T10:21:48.496Z,30.80
2022-12-04T10:24:14.886Z,31.14
2022-12-04T10:26:41.238Z,31.39
2022-12-04T10:29:10.107Z,32.48
2022-12-04T10:31:36.515Z,31.71
2022-12-04T10:34:05.124Z,32.05
2022-12-04T10:36:31.474Z,31.58
2022-12-04T10:41:33.525Z,31.63
2022-12-04T10:44:00.026Z,30.39
2022-12-04T10:46:26.836Z,31.22
2022-12-04T10:48:53.336Z,29.70
2022-12-04T10:51:19.687Z,29.95
2022-12-04T10:53:46.074Z,31.58
2022-12-04T10:56:12.533Z,31.34
2022-12-04T10:58:39.204Z,31.78
2022-12-04T11:01:06.072Z,32.56
2022-12-04T11:03:32.450Z,32.41
2022-12-04T11:06:02.600Z,32.81
2022-12-04T11:08:28.982Z,34.57
2022-12-04T11:10:55.600Z,33.11
2022-12-04T11:13:22.103Z,32.20
2022-12-04T11:15:48.870Z,32.38
2022-12-04T11:18:15.289Z,30.75
2022-12-04T11:20:46.698Z,30.31
2022-12-04T11:23:13.293Z,30.80
2022-12-04T11:25:39.693Z,30.56
2022-12-04T11:28:06.566Z,29.97
2022-12-04T11:30:33.149Z,29.08
2022-12-04T11:32:59.555Z,29.17
2022-12-04T11:35:25.896Z,29.55
2022-12-04T11:37:52.373Z,28.53
2022-12-04T11:40:18.959Z,30.09
2022-12-04T11:42:45.369Z,30.03
2022-12-04T11:45:11.918Z,30.00
2022-12-04T11:47:38.310Z,28.86
2022-12-04T11:50:04.742Z,29.15
2022-12-04T11:52:31.143Z,29.58
2022-12-04T11:54:58.167Z,29.23
2022-12-04T11:57:24.567Z,29.50
2022-12-04T11:59:51.034Z,28.07
2022-12-04T12:02:17.567Z,29.04
2022-12-04T12:04:44.261Z,28.73
2022-12-04T12:07:10.602Z,28.21
2022-12-04T12:09:36.998Z,28.49
2022-12-04T12:12:03.439Z,28.64
2022-12-04T12:14:30.218Z,28.51
2022-12-04T12:16:56.592Z,28.33
2022-12-04T12:19:23.299Z,28.07
2022-12-04T12:21:49.647Z,28.52
2022-12-04T12:24:16.120Z,29.49
2022-12-04T12:26:43.541Z,29.04
2022-12-04T12:29:09.945Z,28.73
2022-12-04T12:31:36.367Z,28.88
2022-12-04T12:34:03.214Z,28.23
2022-12-04T12:36:29.692Z,28.03
2022-12-04T12:38:57.082Z,27.32
2022-12-04T12:41:23.626Z,27.56
2022-12-04T12:43:50.187Z,27.86
2022-12-04T12:46:16.942Z,27.80
2022-12-04T12:48:43.604Z,27.34
2022-12-04T12:51:29.121Z,27.85
2022-12-04T12:53:56.222Z,27.39
2022-12-04T12:56:25.247Z,27.09
2022-12-04T12:58:51.625Z,25.84
2022-12-04T13:01:27.729Z,24.68
2022-12-04T13:03:54.107Z,25.39
2022-12-04T13:06:20.534Z,25.22
2022-12-04T13:08:49.295Z,25.76
2022-12-04T13:11:15.870Z,25.41
2022-12-04T13:13:42.430Z,25.81
2022-12-04T13:16:08.847Z,25.95
2022-12-04T13:18:35.292Z,25.83
2022-12-04T13:21:01.721Z,26.14
2022-12-04T13:23:28.110Z,27.17
2022-12-04T13:25:54.501Z,27.80
2022-12-04T13:28:21.980Z,28.59
2022-12-04T13:30:48.440Z,27.47
2022-12-04T13:33:15.084Z,28.34
2022-12-04T13:35:41.524Z,27.70
2022-12-04T13:38:08.150Z,28.27
2022-12-04T13:40:34.511Z,27.98
2022-12-04T13:43:00.906Z,27.40
2022-12-04T13:45:27.252Z,28.82
2022-12-04T13:47:53.999Z,28.76
2022-12-04T13:50:21.104Z,28.18
2022-12-04T13:52:47.498Z,28.27
2022-12-04T13:55:14.021Z,27.01
2022-12-04T13:57:41.041Z,26.86
2022-12-04T14:00:07.558Z,26.55
2022-12-04T14:02:34.635Z,26.44
2022-12-04T14:05:01.105Z,26.21
2022-12-04T14:07:28.318Z,25.48
2022-12-04T14:09:55.013Z,26.08
2022-12-04T14:12:21.354Z,25.32
2022-12-04T14:14:47.676Z,42.71
2022-12-04T14:17:14.290Z,39.45
2022-12-04T14:19:40.721Z,57.99
2022-12-04T14:22:07.058Z,86.36
2022-12-04T14:24:33.696Z,37.28
2022-12-04T14:27:15.633Z,78.34
2022-12-04T14:29:42.226Z,46.81
2022-12-04T14:32:08.693Z,25.32
2022-12-04T14:34:35.024Z,25.44
2022-12-04T14:37:01.584Z,24.37
2022-12-04T14:39:28.129Z,24.42
2022-12-04T14:41:56.880Z,24.44
2022-12-04T14:44:26.757Z,25.61
2022-12-04T14:46:53.174Z,25.85
2022-12-04T14:49:19.591Z,24.97
2022-12-04T14:51:45.976Z,25.70
2022-12-04T14:54:13.444Z,25.86
2022-12-04T14:56:39.908Z,26.69
2022-12-04T14:59:07.330Z,25.59
2022-12-04T15:01:33.741Z,27.34
2022-12-04T15:04:00.224Z,26.66
2022-12-04T15:06:26.584Z,26.95
2022-12-04T15:08:53.000Z,28.25
2022-12-04T15:11:19.403Z,28.12
2022-12-04T15:13:45.986Z,28.04
2022-12-04T15:16:12.484Z,27.73
2022-12-04T15:18:41.245Z,27.42
2022-12-04T15:21:08.023Z,26.93
2022-12-04T15:23:34.489Z,26.69
2022-12-04T15:26:00.888Z,27.50
2022-12-04T15:28:27.361Z,28.95
2022-12-04T15:30:54.313Z,27.59
2022-12-04T15:33:21.748Z,27.70
2022-12-04T15:35:48.814Z,26.95
2022-12-04T15:38:15.761Z,27.21
2022-12-04T15:40:42.172Z,27.30
2022-12-04T15:43:08.588Z,27.26
2022-12-04T15:45:35.001Z,26.92
2022-12-04T15:48:01.633Z,27.04
2022-12-04T15:50:28.155Z,27.46
2022-12-04T15:52:54.571Z,26.37
2022-12-04T15:55:20.980Z,25.76
2022-12-04T15:57:47.732Z,26.28
2022-12-04T16:00:14.167Z,26.56
2022-12-04T16:02:41.565Z,26.44
2022-12-04T16:05:08.104Z,26.17
2022-12-04T16:07:34.605Z,26.74
2022-12-04T16:10:03.711Z,26.63
2022-12-04T16:12:30.803Z,26.44
2022-12-04T16:14:57.449Z,27.68
2022-12-04T16:17:24.003Z,27.61
2022-12-04T16:19:52.693Z,27.68
2022-12-04T16:22:20.520Z,27.58
2022-12-04T16:24:47.429Z,26.78
2022-12-04T16:27:13.846Z,26.78
2022-12-04T16:29:40.377Z,27.16
2022-12-04T16:32:07.271Z,27.32
2022-12-04T16:34:33.673Z,26.70
2022-12-04T16:37:00.712Z,26.18
2022-12-04T16:39:27.302Z,26.99
2022-12-04T16:41:54.648Z,26.06
2022-12-04T16:44:21.268Z,26.03
2022-12-04T16:46:47.715Z,25.64
2022-12-04T16:49:14.291Z,25.10
2022-12-04T16:51:41.242Z,24.80
2022-12-04T16:54:07.609Z,25.51
2022-12-04T16:56:34.227Z,25.92
2022-12-04T16:59:00.622Z,25.98
2022-12-04T17:01:27.097Z,26.57
2022-12-04T17:03:53.596Z,25.32
2022-12-04T17:06:20.211Z,24.94
2022-12-04T17:08:46.604Z,24.88
2022-12-04T17:11:13.043Z,24.01
2022-12-04T17:13:39.514Z,23.85
2022-12-04T17:16:06.048Z,25.08
2022-12-04T17:18:32.423Z,25.79
2022-12-04T17:21:01.481Z,26.24
2022-12-04T17:23:28.110Z,25.54
2022-12-04T17:25:54.484Z,24.79
2022-12-04T17:28:20.865Z,26.01
2022-12-04T17:30:49.373Z,27.18
2022-12-04T17:33:16.129Z,26.03
2022-12-04T17:35:42.457Z,25.36
2022-12-04T17:38:09.853Z,25.66
2022-12-04T17:40:36.410Z,25.45
2022-12-04T17:43:02.744Z,25.45
2022-12-04T17:45:29.226Z,26.09
2022-12-04T17:47:55.600Z,26.20
2022-12-04T17:50:21.978Z,26.95
2022-12-04T17:52:48.340Z,26.55
2022-12-04T17:55:15.740Z,24.96
2022-12-04T17:57:42.302Z,26.42
2022-12-04T18:00:08.695Z,27.14
2022-12-04T18:02:36.114Z,26.37
2022-12-04T18:05:05.111Z,27.07
2022-12-04T18:07:31.652Z,26.40
2022-12-04T18:09:58.325Z,25.67
2022-12-04T18:12:25.119Z,25.53
2022-12-04T18:14:51.609Z,24.92
2022-12-04T18:17:17.962Z,24.69
2022-12-04T18:19:44.377Z,23.21
2022-12-04T18:22:10.940Z,23.43
2022-12-04T18:24:37.295Z,23.77
2022-12-04T18:27:04.095Z,26.12
2022-12-04T18:29:31.228Z,27.84
2022-12-04T18:31:58.113Z,27.58
2022-12-04T18:34:24.534Z,25.55
2022-12-04T18:36:51.366Z,26.19
2022-12-04T18:39:17.894Z,27.49
2022-12-04T18:41:44.302Z,26.66
2022-12-04T18:44:10.709Z,25.84
2022-12-04T18:49:17.665Z,24.38
2022-12-04T18:51:48.881Z,24.87
2022-12-04T18:54:16.190Z,25.27
2022-12-04T18:56:42.755Z,26.04
2022-12-04T18:59:10.587Z,25.08
2022-12-04T19:01:38.173Z,25.19
2022-12-04T19:04:04.689Z,26.02
2022-12-04T19:06:35.478Z,26.26
2022-12-04T19:09:01.937Z,27.35
2022-12-04T19:11:31.189Z,26.51
2022-12-04T19:13:57.667Z,28.70
2022-12-04T19:16:25.742Z,29.52
2022-12-04T19:18:52.231Z,27.05
2022-12-04T19:21:18.726Z,26.54
2022-12-04T19:23:46.136Z,26.66
2022-12-04T19:26:12.714Z,26.38
2022-12-04T19:28:39.223Z,25.94
2022-12-04T19:31:06.151Z,27.20
2022-12-04T19:33:32.538Z,27.23
2022-12-04T19:35:58.995Z,27.62
2022-12-04T19:38:26.393Z,26.78
2022-12-04T19:40:53.013Z,27.71
2022-12-04T19:43:19.422Z,27.97
2022-12-04T19:45:46.040Z,27.31
2022-12-04T19:48:12.534Z,26.37
2022-12-04T19:50:39.354Z,27.51
2022-12-04T19:53:05.797Z,26.98
2022-12-04T19:55:33.251Z,26.05
2022-12-04T19:58:00.638Z,25.87
2022-12-04T20:00:27.088Z,25.33
2022-12-04T20:02:55.822Z,25.79
2022-12-04T20:05:22.258Z,25.77
2022-12-04T20:07:48.676Z,25.39
2022-12-04T20:10:15.244Z,25.74
2022-12-04T20:12:44.127Z,25.81
2022-12-04T20:15:10.668Z,25.84
2022-12-04T20:17:37.391Z,27.44
2022-12-04T20:20:03.793Z,27.29
2022-12-04T20:22:31.207Z,26.75
2022-12-04T20:24:57.594Z,29.01
2022-12-04T20:27:24.217Z,29.04
2022-12-04T20:29:50.598Z,28.26
2022-12-04T20:32:19.235Z,27.95
2022-12-04T20:34:45.691Z,27.81
2022-12-04T20:37:14.902Z,27.14
2022-12-04T20:39:43.868Z,27.77
2022-12-04T20:42:10.357Z,26.40
2022-12-04T20:44:36.841Z,27.01
2022-12-04T20:47:03.196Z,26.99
2022-12-04T20:49:29.653Z,27.00
2022-12-04T20:51:56.619Z,26.89
2022-12-04T20:54:23.406Z,26.48
2022-12-04T20:56:52.594Z,27.00
2022-12-04T20:59:19.113Z,27.72
2022-12-04T21:01:45.562Z,26.43
2022-12-04T21:04:12.635Z,27.31
2022-12-04T21:06:39.013Z,26.85
2022-12-04T21:09:05.604Z,27.25
2022-12-04T21:11:33.016Z,28.30
2022-12-04T21:13:59.404Z,28.04
2022-12-04T21:16:25.938Z,27.17
2022-12-04T21:18:52.680Z,26.99
2022-12-04T21:21:19.215Z,28.31
2022-12-04T21:23:45.697Z,29.47
2022-12-04T21:26:12.234Z,29.67
2022-12-04T21:28:38.639Z,30.65
2022-12-04T21:31:05.346Z,30.76
2022-12-04T21:33:31.885Z,29.69
2022-12-04T21:35:58.353Z,30.90
2022-12-04T21:38:24.916Z,30.76
2022-12-04T21:40:51.299Z,29.36
2022-12-04T21:43:18.273Z,29.99
2022-12-04T21:45:45.137Z,29.41
2022-12-04T21:48:11.484Z,28.51
2022-12-04T21:50:37.832Z,29.19
2022-12-04T21:53:04.491Z,29.45
2022-12-04T21:55:31.253Z,29.11
2022-12-04T21:57:57.708Z,28.17
2022-12-04T22:00:26.367Z,29.49
2022-12-04T22:02:52.794Z,30.60
2022-12-04T22:05:19.244Z,31.17
2022-12-04T22:07:45.854Z,29.95
2022-12-04T22:10:13.561Z,30.44
2022-12-04T22:12:55.420Z,30.35
2022-12-04T22:15:22.011Z,30.60
2022-12-04T22:17:48.364Z,29.90
2022-12-04T22:20:14.907Z,30.21
2022-12-04T22:22:42.967Z,30.52
2022-12-04T22:25:09.365Z,30.76
2022-12-04T22:27:35.753Z,31.68
2022-12-04T22:30:02.780Z,30.99
2022-12-04T22:32:29.222Z,30.33
2022-12-04T22:34:55.586Z,29.65
2022-12-04T22:37:21.974Z,29.55
2022-12-04T22:39:52.439Z,29.81
2022-12-04T22:42:18.947Z,28.48
2022-12-04T22:44:45.317Z,28.85
2022-12-04T22:47:11.749Z,29.48
2022-12-04T22:49:38.502Z,28.87
2022-12-04T22:52:05.040Z,28.70
2022-12-04T22:54:31.444Z,28.72
2022-12-04T22:56:57.926Z,29.50
2022-12-04T22:59:24.370Z,29.94
2022-12-04T23:01:50.995Z,29.13
2022-12-04T23:04:17.370Z,28.30
2022-12-04T23:06:43.762Z,27.47
2022-12-04T23:09:10.148Z,26.94
2022-12-04T23:11:36.599Z,25.97
2022-12-04T23:14:02.940Z,26.46
2022-12-04T23:16:29.391Z,25.78
2022-12-04T23:18:55.816Z,26.87
2022-12-04T23:21:22.301Z,26.76
2022-12-04T23:23:48.797Z,25.90
2022-12-04T23:26:17.996Z,26.62
2022-12-04T23:28:45.473Z,26.63
2022-12-04T23:31:11.885Z,25.97
2022-12-04T23:33:38.294Z,26.26
2022-12-04T23:36:05.236Z,26.56
2022-12-04T23:38:31.689Z,25.79
2022-12-04T23:40:58.079Z,25.83
2022-12-04T23:43:25.486Z,25.67
2022-12-04T23:45:54.442Z,27.46
2022-12-04T23:48:20.818Z,24.51
2022-12-04T23:50:47.228Z,23.54
2022-12-04T23:53:13.582Z,23.42
2022-12-04T23:55:40.024Z,25.10
2022-12-04T23:58:06.442Z,24.33
